Sunday, October 26, 2014
01:53 UTC
  |  Log In   |  Register Free
Airport Search:

Enterprise Municipal Airport
(KEDN)

Enterprise Municipal Airport Diagram
No Airport Diagram Available

FAA data valid effective September 18, 2014 - November 13, 2014 (unless otherwise noted).

 
 
 
 
 
 
 
 
 
 
 
 
 
 

Current Aviation Weather for Enterprise Municipal Airport (KEDN)

The most recent METAR observation for KEDN was updated at: 0113
METAR Summary (Translated METAR)
KEDN
260055Z AUTO 00000KT 10SM CLR 15/12 A3005 RMK AO2
KSXS
260056Z AUTO 30002KT 10SM CLR 15/12 A3007 RMK AO2 SLP184 T01500119
(4.6 nm NE from KEDN)
KLOR
260053Z AUTO 00000KT 10SM CLR 14/12 A3004 RMK AO2 SLP170 T01390117 TSNO $
(8.3 nm NE from KEDN)
TAF
No TAF information found within 50 nm of KLOR
  Airport Weather Conditions for KEDN

 Current Weather at EDN
59° F
Fair
North winds at 0.0 mph
EDN NOAA Radar

Pressure: 30.05 in
Humidity: 82%
Wind: Calm
Dew Point: 53.6°F
Visibility: 10.00 mi


Airport Weather Forecast for KEDN

Translated METAR and TAF for KLOR
Translated METAR for KLOR (0148 UTC 26 October 2014)
found at http://aviationweather.gov/adds/metars/
 
METAR text: KLOR 260053Z AUTO 00000KT 10SM CLR 14/12 A3004 RMK AO2 SLP170 T01390117 TSNO $
Conditions at: KLOR (LOWE AHP/FT. RUC, AL, US) observed 0053 UTC 26 October 2014
Temperature: 13.9°C (57°F)
Dewpoint: 11.7°C (53°F) [RH = 87%]
Pressure (altimeter): 30.04 inches Hg (1017.4 mb)
[Sea-level pressure: 1017.0 mb]
Winds: calm
Visibility: 10 or more miles (16+ km)
Ceiling: at least 12,000 feet AGL
Clouds: sky clear below 12,000 feet AGL
Weather:
SOME DATA ABOVE MAY BE INACCURATE!!!
"$" is an indication the sensor requires maintenance
Translated TAF for KLOR

There is no translated TAF available for this airport

Find All Airport Services Find A Hotel Find A Rental Car Find A Golf Course Find A Restaurant $100 Hamburger



FBO's on the Field
FBO Company Facility Photos Services Transportation Aviation Fuel Prices: Prices include tax
Catering Weather Repair Courtesy Rental Type 100LL JetA JetA+ MOGAS 8087
 
Enterprise Municipal Airport

This FBO has not yet been rated
FS:Epic
Last Updated: Sep-24
Login to update fuel prices
SS:
Contact Enterprise Municipal AirportMore FBO Information
 
Add another FBO Facility Photos Catering Weather Repair Courtesy Rental Type 100LL JetA JetA+ MOGAS 8087
Services Transportation Aviation Fuel Prices: Prices include tax


model-print
model-print
model-print
model-print